createdAt,value
2017-10-19T00:00:55.641Z,969.68
2017-10-19T00:01:55.685Z,969.67
2017-10-19T00:02:55.670Z,969.70
2017-10-19T00:03:55.716Z,969.68
2017-10-19T00:04:55.763Z,969.68
2017-10-19T00:05:55.812Z,969.75
2017-10-19T00:06:55.924Z,969.71
2017-10-19T00:07:55.904Z,969.67
2017-10-19T00:08:55.950Z,969.66
2017-10-19T00:09:55.995Z,969.70
2017-10-19T00:10:56.043Z,969.68
2017-10-19T00:11:56.151Z,969.69
2017-10-19T00:12:56.135Z,969.71
2017-10-19T00:13:56.181Z,969.69
2017-10-19T00:14:56.228Z,969.66
2017-10-19T00:15:56.274Z,969.67
2017-10-19T00:16:56.402Z,969.62
2017-10-19T00:17:56.365Z,969.64
2017-10-19T00:18:56.412Z,969.66
2017-10-19T00:19:56.458Z,969.64
2017-10-19T00:20:56.505Z,969.65
2017-10-19T00:21:56.618Z,969.70
2017-10-19T00:22:56.601Z,969.68
2017-10-19T00:23:56.644Z,969.73
2017-10-19T00:24:56.691Z,969.72
2017-10-19T00:25:56.738Z,969.73
2017-10-19T00:26:56.848Z,969.73
2017-10-19T00:27:56.896Z,969.71
2017-10-19T00:28:56.878Z,969.65
2017-10-19T00:29:56.919Z,969.69
2017-10-19T00:30:56.969Z,969.67
2017-10-19T00:31:57.016Z,969.65
2017-10-19T00:32:57.126Z,969.67
2017-10-19T00:33:57.107Z,969.66
2017-10-19T00:34:57.163Z,969.66
2017-10-19T00:35:57.202Z,969.65
2017-10-19T00:36:57.247Z,969.67
2017-10-19T00:37:57.362Z,969.65
2017-10-19T00:38:57.339Z,969.63
2017-10-19T00:39:57.386Z,969.65
2017-10-19T00:40:57.433Z,969.66
2017-10-19T00:41:57.480Z,969.64
2017-10-19T00:42:57.590Z,969.62
2017-10-19T00:43:57.574Z,969.66
2017-10-19T00:44:57.620Z,969.61
2017-10-19T00:45:57.664Z,969.63
2017-10-19T00:46:57.717Z,969.67
2017-10-19T00:47:57.836Z,969.68
2017-10-19T00:48:57.804Z,969.68
2017-10-19T00:49:57.851Z,969.69
2017-10-19T00:50:57.895Z,969.66
2017-10-19T00:51:57.941Z,969.63
2017-10-19T00:52:58.062Z,969.65
2017-10-19T00:53:58.035Z,969.64
2017-10-19T00:54:58.086Z,969.61
2017-10-19T00:55:58.128Z,969.61
2017-10-19T00:56:58.174Z,969.58
2017-10-19T00:57:58.298Z,969.54
2017-10-19T00:58:58.266Z,969.53
2017-10-19T00:59:58.309Z,969.52
2017-10-19T01:00:58.359Z,969.49
2017-10-19T01:01:58.405Z,969.49
2017-10-19T01:02:58.534Z,969.46
2017-10-19T01:03:58.496Z,969.46
2017-10-19T01:04:58.545Z,969.46
2017-10-19T01:05:58.590Z,969.43
2017-10-19T01:06:58.635Z,969.42
2017-10-19T01:07:58.746Z,969.42
2017-10-19T01:08:58.791Z,969.42
2017-10-19T01:09:58.774Z,969.41
2017-10-19T01:10:58.822Z,969.43
2017-10-19T01:11:58.867Z,969.42
2017-10-19T01:12:58.913Z,969.37
2017-10-19T01:13:59.023Z,969.35
2017-10-19T01:14:59.007Z,969.32
2017-10-19T01:15:59.052Z,969.36
2017-10-19T01:16:59.101Z,969.34
2017-10-19T01:17:59.144Z,969.35
2017-10-19T01:18:59.255Z,969.37
2017-10-19T01:19:59.235Z,969.36
2017-10-19T01:20:59.282Z,969.42
2017-10-19T01:21:59.328Z,969.38
2017-10-19T01:22:59.375Z,969.41
2017-10-19T01:23:59.501Z,969.39
2017-10-19T01:24:59.465Z,969.42
2017-10-19T01:25:59.513Z,969.41
2017-10-19T01:26:59.559Z,969.42
2017-10-19T01:27:59.603Z,969.35
2017-10-19T01:28:59.732Z,969.38
2017-10-19T01:29:59.697Z,969.30
2017-10-19T01:30:59.746Z,969.30
2017-10-19T01:31:59.789Z,969.27
2017-10-19T01:32:59.834Z,969.26
2017-10-19T01:33:59.963Z,969.26
2017-10-19T01:34:59.923Z,969.23
2017-10-19T01:35:59.972Z,969.27
2017-10-19T01:37:00.035Z,969.28
2017-10-19T01:38:00.065Z,969.25
2017-10-19T01:39:00.177Z,969.27
2017-10-19T01:40:00.155Z,969.23
2017-10-19T01:41:00.201Z,969.23
2017-10-19T01:42:01.028Z,969.26
2017-10-19T01:43:00.290Z,969.26
2017-10-19T01:44:00.403Z,969.29
2017-10-19T01:45:00.457Z,969.25
2017-10-19T01:46:00.432Z,969.27
2017-10-19T01:47:00.477Z,969.30
2017-10-19T01:48:00.524Z,969.26
2017-10-19T01:49:00.570Z,969.24
2017-10-19T01:50:00.680Z,969.22
2017-10-19T01:51:00.660Z,969.20
2017-10-19T01:52:00.708Z,969.28
2017-10-19T01:53:00.758Z,969.24
2017-10-19T01:54:00.798Z,969.22
2017-10-19T01:55:00.908Z,969.20
2017-10-19T01:56:00.892Z,969.21
2017-10-19T01:57:00.935Z,969.19
2017-10-19T01:58:00.982Z,969.15
2017-10-19T01:59:01.028Z,969.11
2017-10-19T02:00:01.181Z,969.14
2017-10-19T02:01:01.122Z,969.07
2017-10-19T02:02:01.161Z,969.05
2017-10-19T02:03:01.211Z,969.06
2017-10-19T02:04:01.254Z,969.04
2017-10-19T02:05:01.367Z,969.04
2017-10-19T02:06:01.347Z,969.01
2017-10-19T02:07:01.394Z,969.04
2017-10-19T02:08:01.441Z,968.97
2017-10-19T02:09:01.488Z,969.04
2017-10-19T02:10:01.619Z,968.98
2017-10-19T02:11:01.579Z,969.01
2017-10-19T02:12:01.626Z,969.02
2017-10-19T02:13:01.669Z,969.01
2017-10-19T02:14:01.715Z,969.05
2017-10-19T02:15:01.859Z,969.02
2017-10-19T02:16:01.827Z,969.05
2017-10-19T02:17:01.853Z,969.11
2017-10-19T02:18:01.899Z,969.04
2017-10-19T02:19:01.944Z,969.07
2017-10-19T02:20:02.056Z,969.03
2017-10-19T02:21:02.101Z,969.05
2017-10-19T02:22:02.084Z,969.00
2017-10-19T02:23:02.128Z,969.02
2017-10-19T02:24:02.180Z,969.03
2017-10-19T02:25:02.291Z,969.01
2017-10-19T02:26:02.334Z,968.99
2017-10-19T02:27:02.315Z,968.96
2017-10-19T02:28:02.359Z,968.97
2017-10-19T02:29:02.423Z,968.99
2017-10-19T02:30:02.449Z,968.97
2017-10-19T02:31:02.570Z,968.94
2017-10-19T02:32:02.552Z,968.98
2017-10-19T02:33:02.598Z,968.97
2017-10-19T02:34:02.636Z,968.98
2017-10-19T02:35:02.681Z,968.98
2017-10-19T02:36:02.793Z,969.01
2017-10-19T02:37:02.775Z,969.01
2017-10-19T02:38:02.820Z,969.03
2017-10-19T02:39:02.864Z,969.02
2017-10-19T02:40:02.914Z,968.98
2017-10-19T02:41:03.021Z,968.97
2017-10-19T02:42:03.106Z,968.99
2017-10-19T02:43:03.050Z,968.97
2017-10-19T02:44:03.095Z,968.97
2017-10-19T02:45:03.141Z,969.03
2017-10-19T02:46:03.252Z,969.10
2017-10-19T02:47:03.235Z,969.05
2017-10-19T02:48:03.280Z,969.08
2017-10-19T02:49:03.326Z,969.06
2017-10-19T02:50:03.372Z,969.07
2017-10-19T02:51:03.489Z,969.11
2017-10-19T02:52:03.480Z,969.09
2017-10-19T02:53:03.512Z,969.06
2017-10-19T02:54:03.556Z,969.10
2017-10-19T02:55:03.604Z,969.08
2017-10-19T02:56:03.714Z,969.06
2017-10-19T02:57:03.699Z,969.05
2017-10-19T02:58:03.741Z,969.06
2017-10-19T02:59:03.787Z,969.04
2017-10-19T03:00:03.834Z,969.08
2017-10-19T03:01:03.944Z,969.13
2017-10-19T03:02:03.924Z,969.12
2017-10-19T03:03:03.974Z,969.13
2017-10-19T03:04:04.026Z,969.09
2017-10-19T03:05:04.070Z,969.11
2017-10-19T03:06:04.171Z,969.08
2017-10-19T03:07:04.155Z,969.11
2017-10-19T03:08:04.201Z,969.07
2017-10-19T03:09:04.248Z,969.06
2017-10-19T03:10:04.293Z,969.04
2017-10-19T03:11:04.418Z,969.04
2017-10-19T03:12:04.382Z,969.08
2017-10-19T03:13:04.430Z,969.05
2017-10-19T03:14:04.476Z,969.06
2017-10-19T03:15:04.523Z,969.06
2017-10-19T03:16:04.637Z,969.07
2017-10-19T03:17:04.614Z,969.07
2017-10-19T03:18:04.663Z,969.07
2017-10-19T03:19:04.705Z,969.08
2017-10-19T03:20:04.754Z,969.09
2017-10-19T03:21:04.883Z,969.11
2017-10-19T03:22:04.844Z,969.09
2017-10-19T03:23:04.889Z,969.07
2017-10-19T03:24:04.936Z,969.08
2017-10-19T03:25:04.982Z,968.98
2017-10-19T03:26:05.105Z,968.98
2017-10-19T03:27:05.137Z,968.94
2017-10-19T03:28:05.119Z,968.99
2017-10-19T03:29:05.166Z,968.95
2017-10-19T03:30:05.210Z,968.93
2017-10-19T03:31:05.338Z,968.96
2017-10-19T03:32:05.374Z,968.95
2017-10-19T03:33:05.353Z,968.97
2017-10-19T03:34:05.394Z,968.95
2017-10-19T03:35:05.439Z,968.89
2017-10-19T03:36:05.485Z,968.88
2017-10-19T03:37:05.615Z,968.93
2017-10-19T03:38:05.581Z,968.88
2017-10-19T03:39:05.622Z,968.94
2017-10-19T03:40:05.669Z,968.92
2017-10-19T03:41:05.725Z,968.89
2017-10-19T03:42:05.837Z,968.86
2017-10-19T03:43:05.803Z,968.87
2017-10-19T03:44:05.855Z,968.90
2017-10-19T03:45:05.899Z,968.96
2017-10-19T03:46:05.941Z,968.91
2017-10-19T03:47:06.052Z,968.90
2017-10-19T03:48:06.097Z,968.89
2017-10-19T03:49:06.085Z,968.88
2017-10-19T03:50:06.125Z,968.91
2017-10-19T03:51:06.170Z,968.92
2017-10-19T03:52:06.280Z,968.95
2017-10-19T03:53:06.336Z,968.96
2017-10-19T03:54:06.307Z,968.94
2017-10-19T03:55:06.353Z,968.99
2017-10-19T03:56:06.397Z,968.93
2017-10-19T03:57:06.450Z,968.91
2017-10-19T03:58:06.554Z,968.90
2017-10-19T03:59:06.535Z,968.89
2017-10-19T04:00:06.581Z,968.92
2017-10-19T04:01:06.630Z,968.95
2017-10-19T04:02:06.672Z,968.90
2017-10-19T04:03:06.780Z,968.95
2017-10-19T04:04:06.770Z,968.93
2017-10-19T04:05:06.810Z,968.90
2017-10-19T04:06:06.853Z,968.91
2017-10-19T04:07:06.900Z,968.94
2017-10-19T04:08:07.011Z,968.93
2017-10-19T04:09:06.996Z,968.90
2017-10-19T04:10:07.045Z,968.86
2017-10-19T04:11:07.084Z,968.85
2017-10-19T04:12:07.128Z,968.86
2017-10-19T04:13:07.238Z,968.88
2017-10-19T04:14:07.221Z,968.91
2017-10-19T04:15:07.266Z,968.93
2017-10-19T04:16:07.312Z,968.92
2017-10-19T04:17:07.364Z,968.96
2017-10-19T04:18:07.466Z,968.97
2017-10-19T04:19:07.450Z,968.97
2017-10-19T04:20:07.495Z,968.97
2017-10-19T04:21:07.543Z,968.98
2017-10-19T04:22:07.584Z,968.96
2017-10-19T04:23:07.697Z,968.98
2017-10-19T04:24:07.698Z,968.92
2017-10-19T04:25:07.727Z,968.90
2017-10-19T04:26:07.772Z,968.91
2017-10-19T04:27:07.815Z,968.92
2017-10-19T04:28:07.925Z,968.94
2017-10-19T04:29:07.912Z,968.91
2017-10-19T04:30:07.955Z,968.94
2017-10-19T04:31:07.998Z,968.93
2017-10-19T04:32:08.046Z,968.96
2017-10-19T04:33:08.155Z,968.92
2017-10-19T04:34:08.136Z,968.98
2017-10-19T04:35:08.183Z,968.99
2017-10-19T04:36:08.235Z,969.06
2017-10-19T04:37:08.272Z,969.02
2017-10-19T04:38:08.382Z,969.03
2017-10-19T04:39:08.367Z,968.99
2017-10-19T04:40:08.414Z,969.01
2017-10-19T04:41:08.455Z,968.99
2017-10-19T04:42:08.504Z,968.99
2017-10-19T04:43:08.628Z,968.99
2017-10-19T04:44:08.595Z,968.98
2017-10-19T04:45:08.641Z,969.00
2017-10-19T04:46:08.689Z,968.96
2017-10-19T04:47:08.733Z,969.00
2017-10-19T04:48:08.840Z,968.97
2017-10-19T04:49:08.890Z,968.97
2017-10-19T04:50:08.870Z,968.94
2017-10-19T04:51:08.914Z,968.92
2017-10-19T04:52:08.958Z,968.92
2017-10-19T04:53:09.008Z,968.91
2017-10-19T04:54:09.115Z,968.91
2017-10-19T04:55:09.101Z,968.89
2017-10-19T04:56:09.147Z,968.87
2017-10-19T04:57:09.189Z,968.86
2017-10-19T04:58:09.236Z,968.84
2017-10-19T04:59:09.343Z,968.83
2017-10-19T05:00:09.326Z,968.83
2017-10-19T05:01:09.368Z,968.85
2017-10-19T05:02:09.419Z,968.79
2017-10-19T05:03:09.463Z,968.85
2017-10-19T05:04:09.588Z,968.85
2017-10-19T05:05:09.555Z,968.88
2017-10-19T05:06:09.596Z,968.94
2017-10-19T05:07:09.644Z,968.93
2017-10-19T05:08:09.686Z,968.94
2017-10-19T05:09:09.799Z,968.94
2017-10-19T05:10:09.782Z,968.97
2017-10-19T05:11:09.827Z,968.96
2017-10-19T05:12:09.880Z,968.99
2017-10-19T05:13:09.917Z,969.00
2017-10-19T05:14:10.028Z,969.01
2017-10-19T05:15:10.008Z,969.02
2017-10-19T05:16:10.054Z,968.97
2017-10-19T05:17:10.098Z,968.96
2017-10-19T05:18:10.148Z,968.96
2017-10-19T05:19:10.256Z,968.94
2017-10-19T05:20:10.236Z,968.98
2017-10-19T05:21:10.282Z,969.00
2017-10-19T05:22:10.324Z,968.98
2017-10-19T05:23:10.371Z,969.00
2017-10-19T05:24:10.496Z,968.99
2017-10-19T05:25:10.462Z,968.97
2017-10-19T05:26:10.511Z,968.98
2017-10-19T05:27:10.555Z,968.98
2017-10-19T05:28:10.606Z,968.97
2017-10-19T05:29:10.728Z,968.96
2017-10-19T05:30:10.689Z,968.93
2017-10-19T05:31:10.733Z,968.88
2017-10-19T05:32:10.780Z,968.88
2017-10-19T05:33:10.826Z,968.90
2017-10-19T05:34:10.953Z,968.86
2017-10-19T05:35:11.572Z,968.89
2017-10-19T05:36:10.961Z,968.90
2017-10-19T05:37:11.013Z,968.96
2017-10-19T05:38:11.052Z,969.01
2017-10-19T05:39:11.634Z,969.01
2017-10-19T05:40:11.255Z,969.09
2017-10-19T05:41:11.192Z,969.12
2017-10-19T05:42:11.239Z,969.14
2017-10-19T05:43:11.281Z,969.11
2017-10-19T05:44:11.359Z,969.07
2017-10-19T05:45:11.434Z,969.02
2017-10-19T05:46:11.415Z,969.01
2017-10-19T05:47:11.462Z,969.00
2017-10-19T05:48:11.506Z,968.98
2017-10-19T05:49:11.553Z,968.97
2017-10-19T05:50:11.662Z,968.96
2017-10-19T05:51:11.643Z,968.94
2017-10-19T05:52:11.695Z,968.97
2017-10-19T05:53:11.734Z,968.98
2017-10-19T05:54:11.778Z,969.01
2017-10-19T05:55:11.901Z,968.98
2017-10-19T05:56:11.871Z,968.96
2017-10-19T05:57:11.915Z,968.97
2017-10-19T05:58:11.959Z,968.98
2017-10-19T05:59:12.012Z,968.94
2017-10-19T06:00:12.119Z,968.97
2017-10-19T06:01:12.160Z,968.97
2017-10-19T06:02:12.138Z,968.97
2017-10-19T06:03:12.187Z,969.01
2017-10-19T06:04:12.231Z,969.03
2017-10-19T06:05:12.279Z,969.10
2017-10-19T06:06:12.388Z,969.11
2017-10-19T06:07:12.371Z,969.09
2017-10-19T06:08:12.416Z,969.17
2017-10-19T06:09:12.460Z,969.22
2017-10-19T06:10:12.501Z,969.19
2017-10-19T06:11:12.614Z,969.21
2017-10-19T06:12:12.594Z,969.22
2017-10-19T06:13:12.641Z,969.19
2017-10-19T06:14:12.685Z,969.17
2017-10-19T06:15:12.734Z,969.18
2017-10-19T06:16:12.847Z,969.15
2017-10-19T06:17:12.822Z,969.19
2017-10-19T06:18:12.866Z,969.19
2017-10-19T06:19:12.913Z,969.16
2017-10-19T06:20:12.960Z,969.16
2017-10-19T06:21:13.067Z,969.15
2017-10-19T06:22:13.048Z,969.16
2017-10-19T06:23:13.097Z,969.11
2017-10-19T06:24:13.141Z,969.16
2017-10-19T06:25:13.185Z,969.19
2017-10-19T06:26:13.296Z,969.20
2017-10-19T06:27:13.281Z,969.21
2017-10-19T06:28:13.322Z,969.25
2017-10-19T06:29:13.369Z,969.24
2017-10-19T06:30:13.415Z,969.26
2017-10-19T06:31:13.529Z,969.26
2017-10-19T06:32:13.501Z,969.30
2017-10-19T06:33:13.551Z,969.32
2017-10-19T06:34:13.595Z,969.35
2017-10-19T06:35:13.641Z,969.36
2017-10-19T06:36:13.757Z,969.38
2017-10-19T06:37:13.735Z,969.38
2017-10-19T06:38:13.779Z,969.39
2017-10-19T06:39:13.825Z,969.42
2017-10-19T06:40:13.869Z,969.45
2017-10-19T06:41:13.982Z,969.45
2017-10-19T06:42:13.962Z,969.47
2017-10-19T06:43:14.007Z,969.50
2017-10-19T06:44:14.054Z,969.52
2017-10-19T06:45:14.101Z,969.54
2017-10-19T06:46:14.210Z,969.58
2017-10-19T06:47:14.254Z,969.62
2017-10-19T06:48:14.237Z,969.63
2017-10-19T06:49:14.285Z,969.67
2017-10-19T06:50:14.328Z,969.65
2017-10-19T06:51:14.375Z,969.66
2017-10-19T06:52:14.490Z,969.71
2017-10-19T06:53:14.471Z,969.73
2017-10-19T06:54:14.515Z,969.70
2017-10-19T06:55:14.561Z,969.77
2017-10-19T06:56:14.608Z,969.80
2017-10-19T06:57:14.719Z,969.84
2017-10-19T06:58:14.702Z,969.81
2017-10-19T06:59:14.748Z,969.81
2017-10-19T07:00:14.796Z,969.82
2017-10-19T07:01:14.842Z,969.84
2017-10-19T07:02:14.951Z,969.83
2017-10-19T07:03:14.936Z,969.85
2017-10-19T07:04:14.987Z,969.85
2017-10-19T07:05:15.031Z,969.85
2017-10-19T07:06:15.077Z,969.87
2017-10-19T07:07:15.188Z,969.84
2017-10-19T07:08:15.172Z,969.88
2017-10-19T07:09:15.220Z,969.85
2017-10-19T07:10:15.269Z,969.87
2017-10-19T07:11:15.314Z,969.88
2017-10-19T07:12:15.424Z,969.88
2017-10-19T07:13:15.413Z,969.88
2017-10-19T07:14:15.464Z,969.88
2017-10-19T07:15:15.511Z,969.89
2017-10-19T07:16:15.562Z,969.93
2017-10-19T07:17:15.671Z,969.93
2017-10-19T07:18:15.651Z,969.99
2017-10-19T07:19:15.700Z,970.02
2017-10-19T07:20:15.752Z,970.04
2017-10-19T07:21:15.799Z,970.07
2017-10-19T07:22:15.910Z,970.04
2017-10-19T07:23:15.900Z,970.04
2017-10-19T07:24:15.947Z,970.07
2017-10-19T07:25:15.994Z,970.02
2017-10-19T07:26:16.047Z,970.01
2017-10-19T07:27:16.154Z,970.01
2017-10-19T07:28:16.140Z,969.98
2017-10-19T07:29:16.188Z,970.01
2017-10-19T07:30:16.235Z,969.98
2017-10-19T07:31:16.284Z,969.99
2017-10-19T07:32:16.397Z,970.00
2017-10-19T07:33:16.383Z,969.94
2017-10-19T07:34:16.430Z,969.98
2017-10-19T07:35:16.479Z,969.95
2017-10-19T07:36:16.529Z,969.93
2017-10-19T07:37:16.642Z,969.94
2017-10-19T07:38:16.627Z,969.96
2017-10-19T07:39:16.680Z,969.96
2017-10-19T07:40:16.728Z,969.97
2017-10-19T07:41:16.778Z,969.99
2017-10-19T07:42:16.908Z,970.01
2017-10-19T07:43:16.870Z,969.99
2017-10-19T07:44:17.546Z,969.98
2017-10-19T07:45:16.972Z,969.99
2017-10-19T07:46:17.022Z,970.00
2017-10-19T07:47:17.135Z,970.03
2017-10-19T07:48:17.181Z,969.99
2017-10-19T07:49:17.170Z,970.00
2017-10-19T07:50:17.219Z,969.99
2017-10-19T07:51:17.269Z,969.99
2017-10-19T07:52:17.317Z,969.97
2017-10-19T07:53:17.436Z,969.91
2017-10-19T07:54:17.419Z,969.91
2017-10-19T07:55:17.468Z,969.88
2017-10-19T07:56:17.518Z,969.82
2017-10-19T07:57:17.567Z,969.82
2017-10-19T07:58:17.685Z,969.84
2017-10-19T07:59:17.660Z,969.84
2017-10-19T08:00:17.715Z,969.83
2017-10-19T08:01:17.764Z,969.83
2017-10-19T08:02:17.811Z,969.80
2017-10-19T08:03:17.929Z,969.80
2017-10-19T08:04:17.912Z,969.79
2017-10-19T08:05:17.961Z,969.75
2017-10-19T08:06:18.012Z,969.73
2017-10-19T08:07:18.061Z,969.72
2017-10-19T08:08:18.181Z,969.71
2017-10-19T08:09:18.161Z,969.65
2017-10-19T08:10:18.215Z,969.61
2017-10-19T08:11:18.260Z,969.61
2017-10-19T08:12:18.309Z,969.58
2017-10-19T08:13:18.445Z,969.53
2017-10-19T08:14:18.411Z,969.57
2017-10-19T08:15:18.460Z,969.56
2017-10-19T08:16:18.510Z,969.60
2017-10-19T08:17:18.561Z,969.56
2017-10-19T08:18:18.685Z,969.54
2017-10-19T08:19:18.657Z,969.56
2017-10-19T08:20:18.707Z,969.60
2017-10-19T08:21:18.758Z,969.63
2017-10-19T08:22:18.810Z,969.73
2017-10-19T08:23:18.921Z,969.84
2017-10-19T08:24:18.980Z,969.90
2017-10-19T08:25:18.959Z,969.95
2017-10-19T08:26:19.005Z,969.98
2017-10-19T08:27:19.060Z,969.97
2017-10-19T08:28:19.112Z,969.93
2017-10-19T08:29:19.229Z,969.90
2017-10-19T08:30:19.217Z,969.87
2017-10-19T08:31:19.262Z,969.79
2017-10-19T08:32:19.332Z,969.80
2017-10-19T08:33:19.366Z,969.79
2017-10-19T08:34:19.482Z,969.78
2017-10-19T08:35:19.468Z,969.86
2017-10-19T08:36:20.057Z,969.86
2017-10-19T08:37:19.574Z,969.87
2017-10-19T08:38:19.624Z,969.88
2017-10-19T08:39:19.821Z,969.89
2017-10-19T08:40:19.730Z,969.81
2017-10-19T08:41:19.783Z,969.74
2017-10-19T08:42:19.834Z,969.71
2017-10-19T08:43:19.894Z,969.63
2017-10-19T08:44:20.024Z,969.67
2017-10-19T08:45:19.990Z,969.65
2017-10-19T08:46:20.044Z,969.66
2017-10-19T08:47:20.094Z,969.73
2017-10-19T08:48:20.149Z,969.75
2017-10-19T08:49:20.264Z,969.79
2017-10-19T08:50:20.319Z,969.86
2017-10-19T08:51:20.304Z,969.92
2017-10-19T08:52:20.357Z,969.89
2017-10-19T08:53:20.411Z,969.91
2017-10-19T08:54:20.461Z,969.83
2017-10-19T08:55:20.672Z,969.81
2017-10-19T08:56:20.567Z,969.82
2017-10-19T08:57:20.640Z,969.82
2017-10-19T08:58:20.671Z,969.87
2017-10-19T08:59:20.730Z,969.89
2017-10-19T09:00:20.919Z,969.89
2017-10-19T09:01:20.827Z,969.84
2017-10-19T09:02:20.879Z,969.80
2017-10-19T09:03:20.931Z,969.84
2017-10-19T09:04:20.988Z,969.81
2017-10-19T09:05:21.099Z,969.89
2017-10-19T09:06:21.086Z,969.90
2017-10-19T09:07:21.136Z,969.87
2017-10-19T09:08:21.189Z,969.91
2017-10-19T09:09:21.240Z,969.84
2017-10-19T09:10:21.372Z,969.85
2017-10-19T09:11:21.347Z,969.82
2017-10-19T09:12:21.412Z,969.79
2017-10-19T09:13:21.450Z,969.79
2017-10-19T09:14:21.503Z,969.77
2017-10-19T09:15:21.621Z,969.83
2017-10-19T09:16:21.614Z,969.80
2017-10-19T09:17:21.658Z,969.86
2017-10-19T09:18:21.715Z,969.86
2017-10-19T09:19:21.768Z,969.89
2017-10-19T09:20:21.886Z,969.93
2017-10-19T09:21:21.938Z,969.91
2017-10-19T09:22:21.929Z,969.92
2017-10-19T09:23:21.984Z,969.97
2017-10-19T09:24:22.038Z,969.95
2017-10-19T09:25:22.093Z,969.92
2017-10-19T09:26:22.211Z,969.95
2017-10-19T09:27:22.202Z,969.92
2017-10-19T09:28:22.257Z,969.87
2017-10-19T09:29:22.311Z,969.92
2017-10-19T09:30:22.366Z,969.87
2017-10-19T09:31:22.484Z,969.92
2017-10-19T09:32:22.476Z,969.92
2017-10-19T09:33:22.531Z,969.93
2017-10-19T09:34:22.584Z,969.96
2017-10-19T09:35:22.645Z,969.95
2017-10-19T09:36:22.769Z,969.91
2017-10-19T09:37:22.754Z,969.91
2017-10-19T09:38:22.809Z,969.89
2017-10-19T09:39:22.863Z,969.85
2017-10-19T09:40:22.920Z,969.87
2017-10-19T09:41:23.044Z,969.88
2017-10-19T09:42:23.030Z,969.88
2017-10-19T09:43:23.087Z,969.91
2017-10-19T09:44:23.139Z,969.90
2017-10-19T09:45:23.202Z,969.92
2017-10-19T09:46:23.325Z,969.91
2017-10-19T09:47:23.306Z,969.92
2017-10-19T09:48:23.360Z,969.95
2017-10-19T09:49:23.412Z,969.92
2017-10-19T09:50:23.466Z,969.96
2017-10-19T09:51:23.596Z,969.93
2017-10-19T09:52:23.576Z,969.94
2017-10-19T09:53:23.631Z,969.94
2017-10-19T09:54:23.683Z,969.95
2017-10-19T09:55:23.740Z,969.96
2017-10-19T09:56:23.858Z,969.96
2017-10-19T09:57:23.910Z,969.98
2017-10-19T09:58:23.901Z,970.01
2017-10-19T09:59:23.956Z,970.03
2017-10-19T10:00:24.005Z,970.00
2017-10-19T10:01:24.063Z,969.99
2017-10-19T10:02:24.180Z,970.02
2017-10-19T10:03:24.174Z,970.00
2017-10-19T10:04:24.224Z,969.98
2017-10-19T10:05:24.278Z,969.97
2017-10-19T10:06:24.330Z,969.97
2017-10-19T10:07:24.448Z,969.99
2017-10-19T10:08:24.440Z,970.00
2017-10-19T10:09:24.501Z,970.01
2017-10-19T10:10:24.546Z,969.97
2017-10-19T10:11:24.603Z,969.99
2017-10-19T10:12:24.722Z,970.01
2017-10-19T10:13:24.710Z,970.00
2017-10-19T10:14:24.764Z,970.01
2017-10-19T10:15:24.817Z,970.01
2017-10-19T10:16:24.868Z,970.00
2017-10-19T10:17:24.992Z,969.98
2017-10-19T10:18:24.980Z,969.95
2017-10-19T10:19:25.035Z,969.96
2017-10-19T10:20:25.090Z,969.94
2017-10-19T10:21:25.144Z,969.96
2017-10-19T10:22:25.263Z,969.94
2017-10-19T10:23:25.256Z,969.96
2017-10-19T10:24:25.310Z,969.93
2017-10-19T10:25:25.365Z,969.90
2017-10-19T10:26:25.420Z,969.90
2017-10-19T10:27:25.538Z,969.90
2017-10-19T10:28:25.532Z,969.88
2017-10-19T10:29:25.589Z,969.91
2017-10-19T10:30:25.647Z,969.83
2017-10-19T10:31:25.696Z,969.85
2017-10-19T10:32:25.817Z,969.87
2017-10-19T10:33:25.809Z,969.85
2017-10-19T10:34:25.863Z,969.83
2017-10-19T10:35:25.917Z,969.85
2017-10-19T10:36:25.974Z,969.82
2017-10-19T10:37:26.188Z,969.83
2017-10-19T10:38:26.089Z,969.82
2017-10-19T10:39:26.141Z,969.83
2017-10-19T10:40:26.199Z,969.81
2017-10-19T10:41:26.253Z,969.81
2017-10-19T10:42:26.389Z,969.77
2017-10-19T10:43:26.370Z,969.74
2017-10-19T10:44:26.417Z,969.78
2017-10-19T10:45:26.476Z,969.75
2017-10-19T10:46:26.534Z,969.70
2017-10-19T10:47:26.668Z,969.72
2017-10-19T10:48:26.648Z,969.70
2017-10-19T10:49:26.698Z,969.70
2017-10-19T10:50:26.752Z,969.73
2017-10-19T10:51:26.813Z,969.71
2017-10-19T10:52:26.928Z,969.70
2017-10-19T10:53:26.983Z,969.69
2017-10-19T10:54:26.973Z,969.70
2017-10-19T10:55:27.029Z,969.66
2017-10-19T10:56:27.083Z,969.67
2017-10-19T10:57:27.138Z,969.63
2017-10-19T10:58:27.259Z,969.64
2017-10-19T10:59:27.247Z,969.64
2017-10-19T11:00:27.301Z,969.64
2017-10-19T11:01:27.359Z,969.59
2017-10-19T11:02:27.411Z,969.56
2017-10-19T11:03:27.557Z,969.55
2017-10-19T11:04:27.520Z,969.51
2017-10-19T11:05:27.578Z,969.51
2017-10-19T11:06:27.637Z,969.55
2017-10-19T11:07:27.690Z,969.54
2017-10-19T11:08:27.805Z,969.50
2017-10-19T11:09:27.796Z,969.47
2017-10-19T11:10:27.851Z,969.53
2017-10-19T11:11:27.905Z,969.54
2017-10-19T11:12:28.021Z,969.52
2017-10-19T11:13:28.075Z,969.50
2017-10-19T11:14:28.066Z,969.49
2017-10-19T11:15:28.121Z,969.53
2017-10-19T11:16:28.178Z,969.48
2017-10-19T11:17:28.233Z,969.46
2017-10-19T11:18:28.355Z,969.53
2017-10-19T11:19:28.339Z,969.49
2017-10-19T11:20:28.394Z,969.45
2017-10-19T11:21:28.449Z,969.48
2017-10-19T11:22:28.506Z,969.43
2017-10-19T11:23:28.640Z,969.41
2017-10-19T11:24:28.612Z,969.38
2017-10-19T11:25:28.670Z,969.39
2017-10-19T11:26:28.728Z,969.33
2017-10-19T11:27:28.777Z,969.36
2017-10-19T11:28:28.895Z,969.31
2017-10-19T11:29:28.953Z,969.33
2017-10-19T11:30:28.937Z,969.31
2017-10-19T11:31:28.993Z,969.27
2017-10-19T11:32:29.047Z,969.30
2017-10-19T11:33:29.107Z,969.26
2017-10-19T11:34:29.241Z,969.26
2017-10-19T11:35:29.210Z,969.23
2017-10-19T11:36:29.263Z,969.18
2017-10-19T11:37:29.315Z,969.18
2017-10-19T11:38:29.370Z,969.15
2017-10-19T11:39:29.506Z,969.14
2017-10-19T11:40:29.481Z,969.16
2017-10-19T11:41:29.531Z,969.14
2017-10-19T11:42:29.583Z,969.16
2017-10-19T11:43:29.636Z,969.12
2017-10-19T11:44:29.767Z,969.08
2017-10-19T11:45:29.742Z,969.05
2017-10-19T11:46:29.793Z,969.05
2017-10-19T11:47:29.847Z,969.03
2017-10-19T11:48:29.900Z,968.89
2017-10-19T11:49:30.038Z,968.95
2017-10-19T11:50:30.007Z,968.93
2017-10-19T11:51:30.058Z,968.89
2017-10-19T11:52:30.113Z,968.88
2017-10-19T11:53:30.168Z,968.86
2017-10-19T11:54:30.300Z,968.84
2017-10-19T11:55:30.274Z,968.84
2017-10-19T11:56:30.327Z,968.82
2017-10-19T11:57:30.384Z,968.81
2017-10-19T11:58:30.431Z,968.80
2017-10-19T11:59:30.687Z,968.76
2017-10-19T12:00:30.545Z,968.80
2017-10-19T12:01:30.611Z,968.78
2017-10-19T12:02:30.646Z,968.71
2017-10-19T12:03:30.704Z,968.71
2017-10-19T12:04:30.844Z,968.71
2017-10-19T12:05:30.811Z,968.67
2017-10-19T12:06:30.862Z,968.67
2017-10-19T12:07:30.918Z,968.68
2017-10-19T12:08:30.966Z,968.71
2017-10-19T12:09:31.103Z,968.65
2017-10-19T12:10:31.081Z,968.66
2017-10-19T12:11:31.138Z,968.66
2017-10-19T12:12:31.185Z,968.64
2017-10-19T12:13:31.239Z,968.63
2017-10-19T12:14:31.377Z,968.59
2017-10-19T12:15:31.352Z,968.60
2017-10-19T12:16:31.404Z,968.59
2017-10-19T12:17:31.459Z,968.57
2017-10-19T12:18:31.515Z,968.58
2017-10-19T12:19:31.646Z,968.56
2017-10-19T12:20:31.619Z,968.55
2017-10-19T12:21:31.674Z,968.59
2017-10-19T12:22:31.729Z,968.56
2017-10-19T12:23:31.783Z,968.58
2017-10-19T12:24:31.902Z,968.54
2017-10-19T12:25:31.958Z,968.56
2017-10-19T12:26:31.947Z,968.54
2017-10-19T12:27:31.999Z,968.50
2017-10-19T12:28:32.056Z,968.50
2017-10-19T12:29:32.111Z,968.53